Baltic Marshall — C4KD2 — position and weather

sailwx.info

Track history (hours):
 
Tides and Currents Weather Stations Pressure Air Temp Water Temp Dewpoint Dewpoint Depression Visibility Wind Speed Wind Dir Waves Ship Positions

Baltic Marshall

Last reported at 2016-Aug-26 13:34 UTC. Time now 2016-Sep-25 13:59 UTC.
Position N 09°15' W 014°18'.
Warning: this ship's position is 30 days out of date.

Length 183 m; draft 7.6 m.

Type: Ship. MMSI: 212118000.

Date/timePositionNaut miles runAvg speedWind from/ knotsBaromVisibWave heightAir tempDewpointWater temp
2016-Aug-26 13:34N 09°15' W 014°18'1513.2
2016-Aug-26 12:27N 09°18' W 014°03'1212.9
2016-Aug-26 11:34N 09°20' W 013°52'12 9.1
2016-Aug-26 10:15N 09°28' W 013°44'3 4.4
2016-Aug-26 09:33N 09°31' W 013°43'0 0.0
2016-Aug-26 08:31N 09°31' W 013°43'0 0.0
2016-Aug-25 09:33N 09°31' W 013°43'31 2.5
2016-Aug-24 21:16N 09°17' W 014°10'1413.5
2016-Aug-24 20:14N 09°16' W 014°24'  
2016-Aug-17 23:28N 27°35' W 015°20'1414.9
2016-Aug-17 22:30N 27°46' W 015°10'1414.8
2016-Aug-17 21:33N 27°59' W 015°04'1514.8
2016-Aug-17 20:33N 28°13' W 014°58'1514.9
2016-Aug-17 19:33N 28°28' W 014°53'1514.6
2016-Aug-17 18:33N 28°42' W 014°49'1514.5
2016-Aug-17 17:33N 28°56' W 014°45'1414.5
2016-Aug-17 16:33N 29°10' W 014°41'1414.3
2016-Aug-17 15:33N 29°24' W 014°36'1414.2
2016-Aug-17 14:33N 29°37' W 014°32'1414.1
2016-Aug-17 13:34N 29°51' W 014°27'1413.8
2016-Aug-17 12:32N 30°05' W 014°24'1313.5
2016-Aug-17 11:33N 30°18' W 014°20'1413.7
2016-Aug-17 10:33N 30°31' W 014°16'1413.8
2016-Aug-17 09:33N 30°44' W 014°12'1414.0
2016-Aug-17 08:32N 30°58' W 014°08'1914.1
2016-Aug-17 07:09N 31°17' W 014°02'1214.3
2016-Aug-17 06:18N 31°29' W 013°58'7214.2
2016-Aug-17 01:13N 32°39' W 013°37'1014.0
2016-Aug-17 00:29N 32°49' W 013°34'  
Track history (hours):
 
Tides and Currents Weather Stations Pressure Air Temp Water Temp Dewpoint Dewpoint Depression Visibility Wind Speed Wind Dir Waves Ship Positions

Baltic Marshall

Last reported at 2016-Aug-26 13:34 UTC. Time now 2016-Sep-25 13:59 UTC.
Position N 09°15' W 014°18'.
Warning: this ship's position is 30 days out of date.

Length 183 m; draft 7.6 m.

Type: Ship. MMSI: 212118000.

Date/timePositionNaut miles runAvg speedWind from/ knotsBaromVisibWave heightAir tempDewpointWater temp
2016-Aug-26 13:34N 09°15' W 014°18'1513.2
2016-Aug-26 12:27N 09°18' W 014°03'1212.9
2016-Aug-26 11:34N 09°20' W 013°52'12 9.1
2016-Aug-26 10:15N 09°28' W 013°44'3 4.4
2016-Aug-26 09:33N 09°31' W 013°43'0 0.0
2016-Aug-26 08:31N 09°31' W 013°43'0 0.0
2016-Aug-25 09:33N 09°31' W 013°43'31 2.5
2016-Aug-24 21:16N 09°17' W 014°10'1413.5
2016-Aug-24 20:14N 09°16' W 014°24'  
2016-Aug-17 23:28N 27°35' W 015°20'1414.9
2016-Aug-17 22:30N 27°46' W 015°10'1414.8
2016-Aug-17 21:33N 27°59' W 015°04'1514.8
2016-Aug-17 20:33N 28°13' W 014°58'1514.9
2016-Aug-17 19:33N 28°28' W 014°53'1514.6
2016-Aug-17 18:33N 28°42' W 014°49'1514.5
2016-Aug-17 17:33N 28°56' W 014°45'1414.5
2016-Aug-17 16:33N 29°10' W 014°41'1414.3
2016-Aug-17 15:33N 29°24' W 014°36'1414.2
2016-Aug-17 14:33N 29°37' W 014°32'1414.1
2016-Aug-17 13:34N 29°51' W 014°27'1413.8
2016-Aug-17 12:32N 30°05' W 014°24'1313.5
2016-Aug-17 11:33N 30°18' W 014°20'1413.7
2016-Aug-17 10:33N 30°31' W 014°16'1413.8
2016-Aug-17 09:33N 30°44' W 014°12'1414.0
2016-Aug-17 08:32N 30°58' W 014°08'1914.1
2016-Aug-17 07:09N 31°17' W 014°02'1214.3
2016-Aug-17 06:18N 31°29' W 013°58'7214.2
2016-Aug-17 01:13N 32°39' W 013°37'1014.0
2016-Aug-17 00:29N 32°49' W 013°34'  

Dump ship's entire track history